sensor_id;sensor_type;location;lat;lon;timestamp;temperature;humidity
18648;DHT22;9453;50.294;18.644;2024-02-21T05:01:20;6.20;99.90
18648;DHT22;9453;50.294;18.644;2024-02-21T05:03:48;6.20;99.90
18648;DHT22;9453;50.294;18.644;2024-02-21T05:06:15;6.20;99.90
18648;DHT22;9453;50.294;18.644;2024-02-21T05:08:42;6.20;99.90
18648;DHT22;9453;50.294;18.644;2024-02-21T05:11:09;6.20;99.90
18648;DHT22;9453;50.294;18.644;2024-02-21T05:13:36;6.10;99.90
18648;DHT22;9453;50.294;18.644;2024-02-21T05:16:03;6.20;99.90
18648;DHT22;9453;50.294;18.644;2024-02-21T05:18:33;6.10;99.90
18648;DHT22;9453;50.294;18.644;2024-02-21T05:21:01;6.10;99.90
18648;DHT22;9453;50.294;18.644;2024-02-21T05:23:28;6.20;99.90
18648;DHT22;9453;50.294;18.644;2024-02-21T05:25:55;6.20;99.90
18648;DHT22;9453;50.294;18.644;2024-02-21T05:28:22;6.20;99.90
18648;DHT22;9453;50.294;18.644;2024-02-21T05:30:48;6.20;99.90
18648;DHT22;9453;50.294;18.644;2024-02-21T05:33:15;6.20;99.90
18648;DHT22;9453;50.294;18.644;2024-02-21T05:35:48;6.20;99.90
18648;DHT22;9453;50.294;18.644;2024-02-21T05:38:15;6.20;99.90
18648;DHT22;9453;50.294;18.644;2024-02-21T05:40:42;6.30;99.90
18648;DHT22;9453;50.294;18.644;2024-02-21T05:43:09;6.30;99.90
18648;DHT22;9453;50.294;18.644;2024-02-21T05:45:37;6.30;99.90
18648;DHT22;9453;50.294;18.644;2024-02-21T05:48:04;6.30;99.90
18648;DHT22;9453;50.294;18.644;2024-02-21T05:50:31;6.30;99.90
18648;DHT22;9453;50.294;18.644;2024-02-21T05:53:00;6.30;99.90
18648;DHT22;9453;50.294;18.644;2024-02-21T05:55:26;6.30;99.90
18648;DHT22;9453;50.294;18.644;2024-02-21T05:57:54;6.30;99.90
18648;DHT22;9453;50.294;18.644;2024-02-21T06:00:21;6.30;99.90
18648;DHT22;9453;50.294;18.644;2024-02-21T06:02:48;6.30;99.90
18648;DHT22;9453;50.294;18.644;2024-02-21T06:05:17;6.40;99.90
18648;DHT22;9453;50.294;18.644;2024-02-21T06:07:44;6.50;99.90
18648;DHT22;9453;50.294;18.644;2024-02-21T06:10:12;6.50;99.90
18648;DHT22;9453;50.294;18.644;2024-02-21T06:12:39;6.50;99.90
18648;DHT22;9453;50.294;18.644;2024-02-21T06:15:07;6.50;99.90
18648;DHT22;9453;50.294;18.644;2024-02-21T06:17:34;6.50;99.90
18648;DHT22;9453;50.294;18.644;2024-02-21T06:20:01;6.50;99.90
18648;DHT22;9453;50.294;18.644;2024-02-21T06:22:28;6.50;99.90
18648;DHT22;9453;50.294;18.644;2024-02-21T06:24:55;6.60;99.90
18648;DHT22;9453;50.294;18.644;2024-02-21T06:27:23;6.60;99.90
18648;DHT22;9453;50.294;18.644;2024-02-21T06:29:51;6.60;99.90
18648;DHT22;9453;50.294;18.644;2024-02-21T06:32:18;6.60;99.90
18648;DHT22;9453;50.294;18.644;2024-02-21T06:34:45;6.60;99.90
18648;DHT22;9453;50.294;18.644;2024-02-21T06:37:11;6.60;99.90
18648;DHT22;9453;50.294;18.644;2024-02-21T06:39:38;6.70;99.90
18648;DHT22;9453;50.294;18.644;2024-02-21T06:42:06;6.70;99.90
18648;DHT22;9453;50.294;18.644;2024-02-21T06:44:34;6.70;99.90
18648;DHT22;9453;50.294;18.644;2024-02-21T06:47:05;6.80;99.90
18648;DHT22;9453;50.294;18.644;2024-02-21T06:49:34;6.80;99.90
18648;DHT22;9453;50.294;18.644;2024-02-21T06:52:03;6.80;99.90
18648;DHT22;9453;50.294;18.644;2024-02-21T06:54:30;6.90;99.90
18648;DHT22;9453;50.294;18.644;2024-02-21T06:56:57;6.90;99.90
18648;DHT22;9453;50.294;18.644;2024-02-21T06:59:24;6.90;99.90
18648;DHT22;9453;50.294;18.644;2024-02-21T07:01:53;7.00;99.90
18648;DHT22;9453;50.294;18.644;2024-02-21T07:04:21;6.90;99.90
18648;DHT22;9453;50.294;18.644;2024-02-21T07:06:48;6.90;99.90
18648;DHT22;9453;50.294;18.644;2024-02-21T07:09:15;6.90;99.90
18648;DHT22;9453;50.294;18.644;2024-02-21T07:11:41;6.90;99.90
18648;DHT22;9453;50.294;18.644;2024-02-21T07:14:08;6.90;99.90
18648;DHT22;9453;50.294;18.644;2024-02-21T07:16:35;6.90;99.90
18648;DHT22;9453;50.294;18.644;2024-02-21T07:19:03;7.00;99.90
18648;DHT22;9453;50.294;18.644;2024-02-21T07:21:30;7.00;99.90
18648;DHT22;9453;50.294;18.644;2024-02-21T07:23:57;7.10;99.90
18648;DHT22;9453;50.294;18.644;2024-02-21T07:26:24;7.10;99.90
18648;DHT22;9453;50.294;18.644;2024-02-21T07:28:51;7.20;99.90
18648;DHT22;9453;50.294;18.644;2024-02-21T07:31:18;7.30;99.90
18648;DHT22;9453;50.294;18.644;2024-02-21T07:33:45;7.30;99.90
18648;DHT22;9453;50.294;18.644;2024-02-21T07:36:15;7.40;99.90
18648;DHT22;9453;50.294;18.644;2024-02-21T07:38:42;7.40;99.90
18648;DHT22;9453;50.294;18.644;2024-02-21T07:41:09;7.50;99.90
18648;DHT22;9453;50.294;18.644;2024-02-21T07:43:36;7.60;99.90
18648;DHT22;9453;50.294;18.644;2024-02-21T07:46:03;7.70;99.90
18648;DHT22;9453;50.294;18.644;2024-02-21T07:48:30;7.70;99.90
18648;DHT22;9453;50.294;18.644;2024-02-21T07:50:57;7.80;99.90
18648;DHT22;9453;50.294;18.644;2024-02-21T07:53:25;7.80;99.90
18648;DHT22;9453;50.294;18.644;2024-02-21T07:55:52;7.90;99.90
18648;DHT22;9453;50.294;18.644;2024-02-21T07:58:19;7.90;99.90
18648;DHT22;9453;50.294;18.644;2024-02-21T08:00:46;8.00;99.90
18648;DHT22;9453;50.294;18.644;2024-02-21T08:03:13;8.00;99.90
18648;DHT22;9453;50.294;18.644;2024-02-21T08:05:43;8.00;99.90
18648;DHT22;9453;50.294;18.644;2024-02-21T08:08:10;8.00;99.90
18648;DHT22;9453;50.294;18.644;2024-02-21T08:10:39;8.20;99.90
18648;DHT22;9453;50.294;18.644;2024-02-21T08:13:06;8.00;99.90
18648;DHT22;9453;50.294;18.644;2024-02-21T08:15:33;8.00;99.90
18648;DHT22;9453;50.294;18.644;2024-02-21T08:18:00;7.90;99.90
18648;DHT22;9453;50.294;18.644;2024-02-21T08:20:29;8.00;99.90
18648;DHT22;9453;50.294;18.644;2024-02-21T08:22:56;8.00;99.90
18648;DHT22;9453;50.294;18.644;2024-02-21T08:25:23;8.00;99.90
18648;DHT22;9453;50.294;18.644;2024-02-21T08:27:51;8.00;99.90
18648;DHT22;9453;50.294;18.644;2024-02-21T08:30:18;8.10;99.90
18648;DHT22;9453;50.294;18.644;2024-02-21T08:32:45;8.20;99.90
18648;DHT22;9453;50.294;18.644;2024-02-21T08:35:12;8.20;99.90
18648;DHT22;9453;50.294;18.644;2024-02-21T08:37:39;8.30;99.90
18648;DHT22;9453;50.294;18.644;2024-02-21T08:40:07;8.30;99.90
18648;DHT22;9453;50.294;18.644;2024-02-21T08:42:35;8.40;99.90
18648;DHT22;9453;50.294;18.644;2024-02-21T08:45:04;8.50;99.90
18648;DHT22;9453;50.294;18.644;2024-02-21T08:47:31;8.50;99.90
18648;DHT22;9453;50.294;18.644;2024-02-21T08:49:58;8.60;99.90
18648;DHT22;9453;50.294;18.644;2024-02-21T08:52:25;8.60;99.90
18648;DHT22;9453;50.294;18.644;2024-02-21T08:54:51;8.70;99.90
18648;DHT22;9453;50.294;18.644;2024-02-21T08:57:19;8.80;99.90
18648;DHT22;9453;50.294;18.644;2024-02-21T08:59:46;9.00;99.90
18648;DHT22;9453;50.294;18.644;2024-02-21T09:02:15;9.20;99.90
18648;DHT22;9453;50.294;18.644;2024-02-21T09:04:42;9.50;99.90
18648;DHT22;9453;50.294;18.644;2024-02-21T09:07:10;9.70;99.90
18648;DHT22;9453;50.294;18.644;2024-02-21T09:09:37;10.00;99.90
18648;DHT22;9453;50.294;18.644;2024-02-21T09:12:06;10.10;99.90
18648;DHT22;9453;50.294;18.644;2024-02-21T09:14:33;10.20;99.90
18648;DHT22;9453;50.294;18.644;2024-02-21T09:17:00;10.30;99.90
18648;DHT22;9453;50.294;18.644;2024-02-21T09:19:28;10.30;99.90
18648;DHT22;9453;50.294;18.644;2024-02-21T09:21:55;10.20;99.90
18648;DHT22;9453;50.294;18.644;2024-02-21T09:24:22;10.10;99.90
18648;DHT22;9453;50.294;18.644;2024-02-21T09:26:50;10.00;99.90
18648;DHT22;9453;50.294;18.644;2024-02-21T09:29:17;10.00;99.90
18648;DHT22;9453;50.294;18.644;2024-02-21T09:31:44;9.90;99.90
18648;DHT22;9453;50.294;18.644;2024-02-21T09:34:11;9.80;99.90
18648;DHT22;9453;50.294;18.644;2024-02-21T09:36:39;9.80;99.90
18648;DHT22;9453;50.294;18.644;2024-02-21T09:39:06;9.90;99.90
18648;DHT22;9453;50.294;18.644;2024-02-21T09:41:36;10.00;99.90
18648;DHT22;9453;50.294;18.644;2024-02-21T09:44:10;10.20;99.90
18648;DHT22;9453;50.294;18.644;2024-02-21T09:46:44;10.40;99.90
18648;DHT22;9453;50.294;18.644;2024-02-21T09:49:24;10.70;99.90
18648;DHT22;9453;50.294;18.644;2024-02-21T09:52:00;11.00;99.70
18648;DHT22;9453;50.294;18.644;2024-02-21T09:54:29;11.00;98.00
18648;DHT22;9453;50.294;18.644;2024-02-21T09:56:55;11.10;97.80
18648;DHT22;9453;50.294;18.644;2024-02-21T09:59:23;11.20;97.60
18648;DHT22;9453;50.294;18.644;2024-02-21T10:01:51;11.10;96.60
18648;DHT22;9453;50.294;18.644;2024-02-21T10:04:18;11.20;96.70
18648;DHT22;9453;50.294;18.644;2024-02-21T10:06:46;11.20;96.40
18648;DHT22;9453;50.294;18.644;2024-02-21T10:09:22;11.30;96.00
18648;DHT22;9453;50.294;18.644;2024-02-21T10:11:54;11.30;95.90
18648;DHT22;9453;50.294;18.644;2024-02-21T10:14:21;11.30;95.10
18648;DHT22;9453;50.294;18.644;2024-02-21T10:16:56;11.40;95.30
18648;DHT22;9453;50.294;18.644;2024-02-21T10:19:23;11.40;94.80
18648;DHT22;9453;50.294;18.644;2024-02-21T10:22:00;11.50;95.00
18648;DHT22;9453;50.294;18.644;2024-02-21T10:24:30;11.60;94.50
18648;DHT22;9453;50.294;18.644;2024-02-21T10:27:04;11.70;94.40
18648;DHT22;9453;50.294;18.644;2024-02-21T10:29:33;11.70;93.50
18648;DHT22;9453;50.294;18.644;2024-02-21T10:32:05;11.70;93.30
18648;DHT22;9453;50.294;18.644;2024-02-21T10:34:32;11.70;93.10
18648;DHT22;9453;50.294;18.644;2024-02-21T10:37:01;11.70;92.80
18648;DHT22;9453;50.294;18.644;2024-02-21T10:39:30;11.80;93.00
18648;DHT22;9453;50.294;18.644;2024-02-21T10:41:59;11.70;92.90
18648;DHT22;9453;50.294;18.644;2024-02-21T10:44:28;11.70;92.70
18648;DHT22;9453;50.294;18.644;2024-02-21T10:46:56;11.80;92.50
18648;DHT22;9453;50.294;18.644;2024-02-21T10:49:24;11.70;92.50
18648;DHT22;9453;50.294;18.644;2024-02-21T10:51:55;11.80;92.30
18648;DHT22;9453;50.294;18.644;2024-02-21T10:54:44;11.70;91.40
18648;DHT22;9453;50.294;18.644;2024-02-21T10:57:13;11.60;91.00
18648;DHT22;9453;50.294;18.644;2024-02-21T10:59:40;11.60;90.80
18648;DHT22;9453;50.294;18.644;2024-02-21T11:02:07;11.60;91.10
18648;DHT22;9453;50.294;18.644;2024-02-21T11:04:35;11.50;90.60
18648;DHT22;9453;50.294;18.644;2024-02-21T11:07:03;11.50;90.90
18648;DHT22;9453;50.294;18.644;2024-02-21T11:09:33;11.50;91.10
18648;DHT22;9453;50.294;18.644;2024-02-21T11:12:02;11.40;91.50
18648;DHT22;9453;50.294;18.644;2024-02-21T11:14:30;11.50;92.00
18648;DHT22;9453;50.294;18.644;2024-02-21T11:17:01;11.50;92.20
18648;DHT22;9453;50.294;18.644;2024-02-21T11:19:29;11.50;92.10
18648;DHT22;9453;50.294;18.644;2024-02-21T11:21:57;11.60;92.40
18648;DHT22;9453;50.294;18.644;2024-02-21T11:24:27;11.50;92.00
18648;DHT22;9453;50.294;18.644;2024-02-21T11:27:07;11.40;92.20
18648;DHT22;9453;50.294;18.644;2024-02-21T11:29:39;11.40;92.50
18648;DHT22;9453;50.294;18.644;2024-02-21T11:32:09;11.30;92.50
18648;DHT22;9453;50.294;18.644;2024-02-21T11:34:36;11.30;92.50
18648;DHT22;9453;50.294;18.644;2024-02-21T11:37:13;11.20;92.60
18648;DHT22;9453;50.294;18.644;2024-02-21T11:39:41;11.20;93.10
18648;DHT22;9453;50.294;18.644;2024-02-21T11:42:10;11.10;93.90
18648;DHT22;9453;50.294;18.644;2024-02-21T11:44:38;11.00;94.30
18648;DHT22;9453;50.294;18.644;2024-02-21T11:47:06;10.90;94.60
18648;DHT22;9453;50.294;18.644;2024-02-21T11:49:36;10.80;95.20
18648;DHT22;9453;50.294;18.644;2024-02-21T11:52:04;10.80;95.80
18648;DHT22;9453;50.294;18.644;2024-02-21T11:54:33;10.60;96.40
18648;DHT22;9453;50.294;18.644;2024-02-21T11:57:00;10.40;96.90
18648;DHT22;9453;50.294;18.644;2024-02-21T11:59:31;10.40;97.50
18648;DHT22;9453;50.294;18.644;2024-02-21T12:01:59;10.30;98.10
18648;DHT22;9453;50.294;18.644;2024-02-21T12:04:26;10.20;98.50
18648;DHT22;9453;50.294;18.644;2024-02-21T12:06:54;10.20;99.20
18648;DHT22;9453;50.294;18.644;2024-02-21T12:09:23;10.20;99.90
18648;DHT22;9453;50.294;18.644;2024-02-21T12:11:57;10.10;99.90
18648;DHT22;9453;50.294;18.644;2024-02-21T12:14:25;10.10;99.90
18648;DHT22;9453;50.294;18.644;2024-02-21T12:16:54;10.10;99.90
18648;DHT22;9453;50.294;18.644;2024-02-21T12:19:21;10.10;99.90
18648;DHT22;9453;50.294;18.644;2024-02-21T12:21:49;10.10;99.90
18648;DHT22;9453;50.294;18.644;2024-02-21T12:24:21;10.10;99.90
18648;DHT22;9453;50.294;18.644;2024-02-21T12:26:48;10.20;99.90
18648;DHT22;9453;50.294;18.644;2024-02-21T12:29:15;10.30;99.90
18648;DHT22;9453;50.294;18.644;2024-02-21T12:31:42;10.40;99.50
18648;DHT22;9453;50.294;18.644;2024-02-21T12:34:11;10.30;98.50
18648;DHT22;9453;50.294;18.644;2024-02-21T12:36:42;10.50;98.50
18648;DHT22;9453;50.294;18.644;2024-02-21T12:39:09;10.60;98.20
18648;DHT22;9453;50.294;18.644;2024-02-21T12:41:36;10.70;98.10
18648;DHT22;9453;50.294;18.644;2024-02-21T12:44:04;10.90;98.20
18648;DHT22;9453;50.294;18.644;2024-02-21T12:46:32;10.90;97.50
18648;DHT22;9453;50.294;18.644;2024-02-21T12:48:59;11.00;97.80
18648;DHT22;9453;50.294;18.644;2024-02-21T12:51:27;11.10;97.50
18648;DHT22;9453;50.294;18.644;2024-02-21T12:53:55;11.10;97.70
18648;DHT22;9453;50.294;18.644;2024-02-21T12:59:12;11.10;97.30
18648;DHT22;9453;50.294;18.644;2024-02-21T13:01:39;11.20;97.40
18648;DHT22;9453;50.294;18.644;2024-02-21T13:04:06;11.20;97.50
18648;DHT22;9453;50.294;18.644;2024-02-21T13:06:34;11.30;97.40
18648;DHT22;9453;50.294;18.644;2024-02-21T13:09:02;11.30;97.20
18648;DHT22;9453;50.294;18.644;2024-02-21T13:11:34;11.20;96.60
18648;DHT22;9453;50.294;18.644;2024-02-21T13:14:01;11.20;97.00
18648;DHT22;9453;50.294;18.644;2024-02-21T13:16:27;11.10;96.60
18648;DHT22;9453;50.294;18.644;2024-02-21T13:18:54;11.10;96.40
18648;DHT22;9453;50.294;18.644;2024-02-21T13:21:21;11.10;96.60
18648;DHT22;9453;50.294;18.644;2024-02-21T13:23:49;11.10;96.80
18648;DHT22;9453;50.294;18.644;2024-02-21T13:26:16;11.10;96.70
18648;DHT22;9453;50.294;18.644;2024-02-21T13:28:44;11.10;96.40
18648;DHT22;9453;50.294;18.644;2024-02-21T13:31:11;10.90;96.30
18648;DHT22;9453;50.294;18.644;2024-02-21T13:33:38;10.80;95.70
18648;DHT22;9453;50.294;18.644;2024-02-21T13:36:05;10.70;95.60
18648;DHT22;9453;50.294;18.644;2024-02-21T13:38:32;10.50;95.40
18648;DHT22;9453;50.294;18.644;2024-02-21T13:41:01;10.40;95.30
18648;DHT22;9453;50.294;18.644;2024-02-21T13:43:28;10.40;95.80
18648;DHT22;9453;50.294;18.644;2024-02-21T13:45:57;10.30;95.90
18648;DHT22;9453;50.294;18.644;2024-02-21T13:48:24;10.20;95.80
18648;DHT22;9453;50.294;18.644;2024-02-21T13:50:52;10.20;96.10
18648;DHT22;9453;50.294;18.644;2024-02-21T13:53:19;10.10;95.50
18648;DHT22;9453;50.294;18.644;2024-02-21T13:55:47;10.10;96.20
18648;DHT22;9453;50.294;18.644;2024-02-21T13:58:15;10.10;96.60
18648;DHT22;9453;50.294;18.644;2024-02-21T14:00:43;10.00;96.40
18648;DHT22;9453;50.294;18.644;2024-02-21T14:03:09;10.10;96.70
18648;DHT22;9453;50.294;18.644;2024-02-21T14:05:37;10.10;96.70
18648;DHT22;9453;50.294;18.644;2024-02-21T14:08:06;10.10;97.20
18648;DHT22;9453;50.294;18.644;2024-02-21T14:10:33;10.20;97.70
18648;DHT22;9453;50.294;18.644;2024-02-21T14:13:00;10.30;97.50
18648;DHT22;9453;50.294;18.644;2024-02-21T14:15:29;10.30;97.20
18648;DHT22;9453;50.294;18.644;2024-02-21T14:17:56;10.40;96.90
18648;DHT22;9453;50.294;18.644;2024-02-21T14:20:22;10.40;96.90
18648;DHT22;9453;50.294;18.644;2024-02-21T14:22:49;10.30;97.10
18648;DHT22;9453;50.294;18.644;2024-02-21T14:25:16;10.40;97.40
18648;DHT22;9453;50.294;18.644;2024-02-21T14:27:43;10.40;97.20
18648;DHT22;9453;50.294;18.644;2024-02-21T14:30:11;10.30;96.80
18648;DHT22;9453;50.294;18.644;2024-02-21T14:32:43;10.30;97.10
18648;DHT22;9453;50.294;18.644;2024-02-21T14:35:11;10.30;97.00
18648;DHT22;9453;50.294;18.644;2024-02-21T14:37:38;10.30;97.00
18648;DHT22;9453;50.294;18.644;2024-02-21T14:40:05;10.30;97.00
18648;DHT22;9453;50.294;18.644;2024-02-21T14:42:33;10.40;97.00
18648;DHT22;9453;50.294;18.644;2024-02-21T14:45:00;10.40;96.70
18648;DHT22;9453;50.294;18.644;2024-02-21T14:47:30;10.30;96.20
18648;DHT22;9453;50.294;18.644;2024-02-21T14:49:58;10.30;96.20
18648;DHT22;9453;50.294;18.644;2024-02-21T14:52:25;10.30;96.20
18648;DHT22;9453;50.294;18.644;2024-02-21T14:54:53;10.30;96.30
18648;DHT22;9453;50.294;18.644;2024-02-21T14:57:20;10.20;96.20
18648;DHT22;9453;50.294;18.644;2024-02-21T14:59:47;10.20;96.20
18648;DHT22;9453;50.294;18.644;2024-02-21T15:02:15;10.20;96.20
18648;DHT22;9453;50.294;18.644;2024-02-21T15:04:42;10.10;96.20
18648;DHT22;9453;50.294;18.644;2024-02-21T15:07:10;10.10;96.20
18648;DHT22;9453;50.294;18.644;2024-02-21T15:09:37;10.20;96.20
18648;DHT22;9453;50.294;18.644;2024-02-21T15:12:04;10.20;96.10
18648;DHT22;9453;50.294;18.644;2024-02-21T15:14:31;10.20;95.70
18648;DHT22;9453;50.294;18.644;2024-02-21T15:16:59;10.10;95.80
18648;DHT22;9453;50.294;18.644;2024-02-21T15:19:26;10.10;96.00
18648;DHT22;9453;50.294;18.644;2024-02-21T15:21:52;10.00;96.10
18648;DHT22;9453;50.294;18.644;2024-02-21T15:24:21;9.80;96.90
18648;DHT22;9453;50.294;18.644;2024-02-21T15:26:48;9.70;97.10
18648;DHT22;9453;50.294;18.644;2024-02-21T15:29:15;9.50;97.50
18648;DHT22;9453;50.294;18.644;2024-02-21T15:31:42;9.40;97.90
18648;DHT22;9453;50.294;18.644;2024-02-21T15:34:13;9.30;98.30
18648;DHT22;9453;50.294;18.644;2024-02-21T15:36:41;9.20;98.70
18648;DHT22;9453;50.294;18.644;2024-02-21T15:39:08;9.10;99.10
18648;DHT22;9453;50.294;18.644;2024-02-21T15:41:37;9.00;99.50
18648;DHT22;9453;50.294;18.644;2024-02-21T15:44:04;8.90;99.70
18648;DHT22;9453;50.294;18.644;2024-02-21T15:46:31;8.90;99.90
18648;DHT22;9453;50.294;18.644;2024-02-21T15:49:00;8.80;99.90
18648;DHT22;9453;50.294;18.644;2024-02-21T15:51:27;8.80;99.90
18648;DHT22;9453;50.294;18.644;2024-02-21T15:53:55;8.80;99.90
18648;DHT22;9453;50.294;18.644;2024-02-21T15:56:22;8.80;99.90
18648;DHT22;9453;50.294;18.644;2024-02-21T15:58:51;8.70;99.90
18648;DHT22;9453;50.294;18.644;2024-02-21T16:01:17;8.70;99.90
18648;DHT22;9453;50.294;18.644;2024-02-21T16:03:44;8.70;99.90
18648;DHT22;9453;50.294;18.644;2024-02-21T16:06:11;8.70;99.90
18648;DHT22;9453;50.294;18.644;2024-02-21T16:08:38;8.70;99.90
18648;DHT22;9453;50.294;18.644;2024-02-21T16:11:06;8.70;99.90
18648;DHT22;9453;50.294;18.644;2024-02-21T16:13:34;8.60;99.90
18648;DHT22;9453;50.294;18.644;2024-02-21T16:16:04;8.60;99.90
18648;DHT22;9453;50.294;18.644;2024-02-21T16:18:31;8.50;99.90
18648;DHT22;9453;50.294;18.644;2024-02-21T16:20:58;8.50;99.90
18648;DHT22;9453;50.294;18.644;2024-02-21T16:23:25;8.30;99.90
18648;DHT22;9453;50.294;18.644;2024-02-21T16:25:52;8.30;99.90
18648;DHT22;9453;50.294;18.644;2024-02-21T16:28:19;8.20;99.90
18648;DHT22;9453;50.294;18.644;2024-02-21T16:30:46;8.20;99.90
18648;DHT22;9453;50.294;18.644;2024-02-21T16:33:14;8.10;99.90
18648;DHT22;9453;50.294;18.644;2024-02-21T16:35:41;8.10;99.90
18648;DHT22;9453;50.294;18.644;2024-02-21T16:38:08;8.20;99.90
18648;DHT22;9453;50.294;18.644;2024-02-21T16:40:36;8.10;99.90
18648;DHT22;9453;50.294;18.644;2024-02-21T16:43:03;8.10;99.90
18648;DHT22;9453;50.294;18.644;2024-02-21T16:45:30;8.10;99.90
18648;DHT22;9453;50.294;18.644;2024-02-21T16:47:57;8.10;99.90
18648;DHT22;9453;50.294;18.644;2024-02-21T16:50:26;8.10;99.90
18648;DHT22;9453;50.294;18.644;2024-02-21T16:52:53;8.00;99.90
18648;DHT22;9453;50.294;18.644;2024-02-21T16:55:20;8.00;99.90
18648;DHT22;9453;50.294;18.644;2024-02-21T16:57:48;7.90;99.90
18648;DHT22;9453;50.294;18.644;2024-02-21T17:00:15;7.90;99.90
18648;DHT22;9453;50.294;18.644;2024-02-21T17:02:44;7.80;99.90
18648;DHT22;9453;50.294;18.644;2024-02-21T17:05:10;7.80;99.90
18648;DHT22;9453;50.294;18.644;2024-02-21T17:07:39;7.70;99.90
18648;DHT22;9453;50.294;18.644;2024-02-21T17:10:06;7.70;99.90
18648;DHT22;9453;50.294;18.644;2024-02-21T17:12:34;7.60;99.90
18648;DHT22;9453;50.294;18.644;2024-02-21T17:15:02;7.60;99.90
18648;DHT22;9453;50.294;18.644;2024-02-21T17:17:29;7.60;99.90
18648;DHT22;9453;50.294;18.644;2024-02-21T17:19:56;7.50;99.90
18648;DHT22;9453;50.294;18.644;2024-02-21T17:22:23;7.50;99.90
18648;DHT22;9453;50.294;18.644;2024-02-21T17:24:52;7.40;99.90
18648;DHT22;9453;50.294;18.644;2024-02-21T17:27:19;7.40;99.90
18648;DHT22;9453;50.294;18.644;2024-02-21T17:29:46;7.40;99.90
18648;DHT22;9453;50.294;18.644;2024-02-21T17:32:12;7.30;99.90
18648;DHT22;9453;50.294;18.644;2024-02-21T17:34:39;7.30;99.90
18648;DHT22;9453;50.294;18.644;2024-02-21T17:37:07;7.30;99.90
18648;DHT22;9453;50.294;18.644;2024-02-21T17:39:33;7.30;99.90
18648;DHT22;9453;50.294;18.644;2024-02-21T17:42:02;7.20;99.90
18648;DHT22;9453;50.294;18.644;2024-02-21T17:44:29;7.20;99.90
18648;DHT22;9453;50.294;18.644;2024-02-21T17:46:56;7.20;99.90
18648;DHT22;9453;50.294;18.644;2024-02-21T17:49:23;7.20;99.90
18648;DHT22;9453;50.294;18.644;2024-02-21T17:51:50;7.20;99.90
18648;DHT22;9453;50.294;18.644;2024-02-21T17:54:16;7.10;99.90
18648;DHT22;9453;50.294;18.644;2024-02-21T17:56:43;7.10;99.90
18648;DHT22;9453;50.294;18.644;2024-02-21T17:59:12;7.10;99.90
18648;DHT22;9453;50.294;18.644;2024-02-21T18:01:39;7.10;99.90
18648;DHT22;9453;50.294;18.644;2024-02-21T18:04:05;7.10;99.90
18648;DHT22;9453;50.294;18.644;2024-02-21T18:06:32;7.00;99.90
18648;DHT22;9453;50.294;18.644;2024-02-21T18:09:00;7.00;99.90
18648;DHT22;9453;50.294;18.644;2024-02-21T18:11:27;7.00;99.90
18648;DHT22;9453;50.294;18.644;2024-02-21T18:13:54;7.00;99.90
18648;DHT22;9453;50.294;18.644;2024-02-21T18:16:24;7.00;99.90
18648;DHT22;9453;50.294;18.644;2024-02-21T18:18:51;6.90;99.90
18648;DHT22;9453;50.294;18.644;2024-02-21T18:21:18;6.90;99.90
18648;DHT22;9453;50.294;18.644;2024-02-21T18:23:45;6.90;99.90
18648;DHT22;9453;50.294;18.644;2024-02-21T18:26:12;6.90;99.90
18648;DHT22;9453;50.294;18.644;2024-02-21T18:28:42;6.90;99.90
18648;DHT22;9453;50.294;18.644;2024-02-21T18:31:10;6.90;99.90
18648;DHT22;9453;50.294;18.644;2024-02-21T18:33:38;6.90;99.90
18648;DHT22;9453;50.294;18.644;2024-02-21T18:36:10;6.80;99.90
18648;DHT22;9453;50.294;18.644;2024-02-21T18:38:37;6.80;99.90
18648;DHT22;9453;50.294;18.644;2024-02-21T18:41:04;6.80;99.90
18648;DHT22;9453;50.294;18.644;2024-02-21T18:43:33;6.70;99.90
18648;DHT22;9453;50.294;18.644;2024-02-21T18:46:00;6.70;99.90
18648;DHT22;9453;50.294;18.644;2024-02-21T18:48:27;6.70;99.90
18648;DHT22;9453;50.294;18.644;2024-02-21T18:50:56;6.70;99.90
18648;DHT22;9453;50.294;18.644;2024-02-21T18:53:22;6.70;99.90
18648;DHT22;9453;50.294;18.644;2024-02-21T18:55:51;6.70;99.90
18648;DHT22;9453;50.294;18.644;2024-02-21T18:58:22;6.70;99.90
18648;DHT22;9453;50.294;18.644;2024-02-21T19:00:49;6.70;99.90
18648;DHT22;9453;50.294;18.644;2024-02-21T19:03:16;6.70;99.90
18648;DHT22;9453;50.294;18.644;2024-02-21T19:05:43;6.70;99.90
18648;DHT22;9453;50.294;18.644;2024-02-21T19:08:12;6.60;99.90
18648;DHT22;9453;50.294;18.644;2024-02-21T19:10:39;6.70;99.90
18648;DHT22;9453;50.294;18.644;2024-02-21T19:13:05;6.60;99.90
18648;DHT22;9453;50.294;18.644;2024-02-21T19:15:34;6.60;99.90
18648;DHT22;9453;50.294;18.644;2024-02-21T19:18:03;6.60;99.90
18648;DHT22;9453;50.294;18.644;2024-02-21T19:20:30;6.60;99.90
18648;DHT22;9453;50.294;18.644;2024-02-21T19:23:03;6.50;99.90
18648;DHT22;9453;50.294;18.644;2024-02-21T19:25:31;6.60;99.90
18648;DHT22;9453;50.294;18.644;2024-02-21T19:28:10;6.50;99.90
18648;DHT22;9453;50.294;18.644;2024-02-21T19:30:37;6.50;99.90
18648;DHT22;9453;50.294;18.644;2024-02-21T19:33:04;6.50;99.90
18648;DHT22;9453;50.294;18.644;2024-02-21T19:35:31;6.50;99.90
18648;DHT22;9453;50.294;18.644;2024-02-21T19:37:58;6.40;99.90
18648;DHT22;9453;50.294;18.644;2024-02-21T19:40:28;6.40;99.90
18648;DHT22;9453;50.294;18.644;2024-02-21T19:42:57;6.40;99.90
18648;DHT22;9453;50.294;18.644;2024-02-21T19:45:24;6.40;99.90
18648;DHT22;9453;50.294;18.644;2024-02-21T19:47:51;6.40;99.90
18648;DHT22;9453;50.294;18.644;2024-02-21T19:50:18;6.30;99.90
18648;DHT22;9453;50.294;18.644;2024-02-21T19:52:47;6.30;99.90
18648;DHT22;9453;50.294;18.644;2024-02-21T19:55:15;6.30;99.90
18648;DHT22;9453;50.294;18.644;2024-02-21T19:57:42;6.30;99.90
18648;DHT22;9453;50.294;18.644;2024-02-21T20:00:11;6.30;99.90
18648;DHT22;9453;50.294;18.644;2024-02-21T20:02:38;6.30;99.90
18648;DHT22;9453;50.294;18.644;2024-02-21T20:05:06;6.20;99.90
18648;DHT22;9453;50.294;18.644;2024-02-21T20:07:33;6.20;99.90
18648;DHT22;9453;50.294;18.644;2024-02-21T20:10:00;6.20;99.90
18648;DHT22;9453;50.294;18.644;2024-02-21T20:12:29;6.20;99.90
18648;DHT22;9453;50.294;18.644;2024-02-21T20:14:56;6.20;99.90
18648;DHT22;9453;50.294;18.644;2024-02-21T20:17:28;6.10;99.90
18648;DHT22;9453;50.294;18.644;2024-02-21T20:19:54;6.10;99.90
18648;DHT22;9453;50.294;18.644;2024-02-21T20:22:21;6.10;99.90
18648;DHT22;9453;50.294;18.644;2024-02-21T20:24:50;6.10;99.90
18648;DHT22;9453;50.294;18.644;2024-02-21T20:27:17;6.20;99.90
18648;DHT22;9453;50.294;18.644;2024-02-21T20:29:44;6.20;99.90
18648;DHT22;9453;50.294;18.644;2024-02-21T20:32:11;6.20;99.90
18648;DHT22;9453;50.294;18.644;2024-02-21T20:34:40;6.20;99.90
18648;DHT22;9453;50.294;18.644;2024-02-21T20:37:08;6.20;99.90
18648;DHT22;9453;50.294;18.644;2024-02-21T20:39:37;6.20;99.90
18648;DHT22;9453;50.294;18.644;2024-02-21T20:42:05;6.20;99.90
18648;DHT22;9453;50.294;18.644;2024-02-21T20:44:31;6.20;99.90
18648;DHT22;9453;50.294;18.644;2024-02-21T20:46:58;6.20;99.90